Time;durP1;ratioP1;P1;durP2;ratioP2;P2;SDS_P1;SDS_P2;PMS_P1;PMS_P2;Temp;Humidity;BMP_temperature;BMP_pressure;BME280_temperature;BME280_humidity;BME280_pressure;Samples;Min_cycle;Max_cycle;Signal;HPM_P1;HPM_P2
2022/03/19 00:01:00;;;;;;;11.50;2.80;;;3.10;99.90;;;;;;4980423;28;20193;-86
2022/03/19 00:03:27;;;;;;;13.80;3.15;;;3.10;99.90;;;;;;5008853;28;20046;-87
2022/03/19 00:05:53;;;;;;;15.25;2.78;;;3.10;99.90;;;;;;4993952;28;20099;-85
2022/03/19 00:08:19;;;;;;;16.20;2.90;;;3.10;99.90;;;;;;4966885;28;20047;-86
2022/03/19 00:10:45;;;;;;;17.42;3.20;;;3.00;99.90;;;;;;4981302;28;20058;-86
2022/03/19 00:13:12;;;;;;;18.63;3.35;;;3.10;99.90;;;;;;4971126;28;20795;-86
2022/03/19 00:15:38;;;;;;;17.10;3.33;;;3.10;99.90;;;;;;4974652;28;20050;-86
2022/03/19 00:18:04;;;;;;;11.63;3.00;;;3.10;99.90;;;;;;4993074;28;20125;-86
2022/03/19 00:20:31;;;;;;;17.27;3.25;;;3.10;99.90;;;;;;4990597;28;20054;-85
2022/03/19 00:22:58;;;;;;;20.35;3.63;;;3.10;99.90;;;;;;4975767;28;20069;-86
2022/03/19 00:25:24;;;;;;;17.92;3.33;;;3.10;99.90;;;;;;4989083;28;20084;-86
2022/03/19 00:27:49;;;;;;;21.40;3.30;;;3.00;99.90;;;;;;4973718;28;20072;-85
2022/03/19 00:30:15;;;;;;;17.45;4.05;;;3.00;99.90;;;;;;4989549;28;20177;-90
2022/03/19 00:32:41;;;;;;;22.15;3.47;;;2.90;99.90;;;;;;4989236;28;20085;-89
2022/03/19 00:35:08;;;;;;;14.95;3.35;;;2.80;99.90;;;;;;4987153;28;20054;-86
2022/03/19 00:37:53;;;;;;;14.95;3.03;;;2.70;99.90;;;;;;4988060;28;20050;-86
2022/03/19 00:40:22;;;;;;;13.30;3.63;;;2.70;99.90;;;;;;4967551;28;20124;-86
2022/03/19 00:42:48;;;;;;;12.93;3.20;;;2.70;99.90;;;;;;4974216;28;20120;-86
2022/03/19 00:45:14;;;;;;;15.48;3.13;;;2.60;99.90;;;;;;4993039;28;20108;-85
2022/03/19 00:47:40;;;;;;;18.88;3.33;;;2.50;99.90;;;;;;5010149;28;20133;-87
2022/03/19 00:50:07;;;;;;;10.13;3.00;;;2.50;99.90;;;;;;4976671;28;20133;-86
2022/03/19 00:52:34;;;;;;;11.77;4.03;;;2.50;99.90;;;;;;4977524;28;20144;-87
2022/03/19 00:54:59;;;;;;;15.50;3.03;;;2.30;99.90;;;;;;4976962;28;20049;-87
2022/03/19 00:57:25;;;;;;;14.73;3.35;;;2.30;99.90;;;;;;4981562;28;20054;-87
2022/03/19 00:59:51;;;;;;;19.17;3.50;;;2.30;99.90;;;;;;4994483;28;20054;-86
2022/03/19 01:02:17;;;;;;;17.08;3.80;;;2.30;99.90;;;;;;4973120;28;20074;-87
2022/03/19 01:04:42;;;;;;;17.13;3.00;;;2.30;99.90;;;;;;4993599;28;20067;-89
2022/03/19 01:07:08;;;;;;;20.13;3.70;;;2.40;99.90;;;;;;4976658;28;20058;-87
2022/03/19 01:09:34;;;;;;;14.73;3.72;;;2.40;99.90;;;;;;4959118;28;20109;-86
2022/03/19 01:12:00;;;;;;;15.20;3.05;;;2.40;99.90;;;;;;4975589;28;20137;-87
2022/03/19 01:14:25;;;;;;;15.38;3.53;;;2.40;99.90;;;;;;4992953;28;20392;-86
2022/03/19 01:16:51;;;;;;;9.45;3.00;;;2.40;99.90;;;;;;4964920;28;20069;-87
2022/03/19 01:19:52;;;;;;;13.52;3.20;;;2.40;99.90;;;;;;4962992;28;20100;-86
2022/03/19 01:22:03;;;;;;;18.07;3.37;;;2.40;99.90;;;;;;4980838;28;20127;-86
2022/03/19 01:24:29;;;;;;;19.98;3.25;;;2.40;99.90;;;;;;4970087;28;20313;-86
2022/03/19 01:26:54;;;;;;;15.93;3.20;;;2.40;99.90;;;;;;4970507;28;20046;-86
2022/03/19 01:29:20;;;;;;;17.15;3.88;;;2.40;99.90;;;;;;4993253;28;20084;-87
2022/03/19 01:31:46;;;;;;;11.30;2.72;;;2.30;99.90;;;;;;4992551;28;20072;-90
2022/03/19 01:34:14;;;;;;;21.35;3.15;;;2.40;99.90;;;;;;4992890;28;20105;-87
2022/03/19 01:36:40;;;;;;;20.58;3.40;;;2.30;99.90;;;;;;4976346;28;20042;-87
2022/03/19 01:39:06;;;;;;;18.05;3.50;;;2.40;99.90;;;;;;4993037;28;20053;-87
2022/03/19 01:41:31;;;;;;;18.85;3.58;;;2.30;99.90;;;;;;4977902;28;20042;-87
2022/03/19 01:43:57;;;;;;;17.00;2.85;;;2.30;99.90;;;;;;4992770;28;20116;-87
2022/03/19 01:46:26;;;;;;;19.05;3.47;;;2.30;99.90;;;;;;4961315;28;20050;-87
2022/03/19 01:48:52;;;;;;;18.00;3.38;;;2.30;99.90;;;;;;4992965;28;20171;-86
2022/03/19 01:51:17;;;;;;;15.88;4.05;;;2.30;99.90;;;;;;4992684;28;20681;-87
2022/03/19 01:53:46;;;;;;;16.15;3.40;;;2.30;99.90;;;;;;4992752;28;20763;-91
2022/03/19 01:56:12;;;;;;;20.45;4.65;;;2.40;99.90;;;;;;5007209;28;20061;-88
2022/03/19 01:58:37;;;;;;;15.07;3.58;;;2.40;99.90;;;;;;4963902;28;20062;-89
2022/03/19 02:01:04;;;;;;;22.40;3.75;;;2.40;99.90;;;;;;4990483;28;20053;-87
2022/03/19 02:03:30;;;;;;;19.33;4.10;;;2.40;99.90;;;;;;5010219;28;20050;-87
2022/03/19 02:05:57;;;;;;;21.17;3.65;;;2.50;99.90;;;;;;4971009;28;20054;-88
2022/03/19 02:08:23;;;;;;;19.38;4.05;;;2.40;99.90;;;;;;4971268;28;20069;-86
2022/03/19 02:10:49;;;;;;;13.07;3.45;;;2.50;99.90;;;;;;4974421;28;20062;-89
2022/03/19 02:13:15;;;;;;;22.40;3.63;;;2.50;99.90;;;;;;4960086;28;20045;-87
2022/03/19 02:15:41;;;;;;;15.98;3.35;;;2.60;99.90;;;;;;4958887;28;20645;-86
2022/03/19 02:18:06;;;;;;;19.25;4.53;;;2.60;99.90;;;;;;4970757;28;20554;-88
2022/03/19 02:20:35;;;;;;;21.35;4.07;;;2.60;99.90;;;;;;4971029;28;20132;-87
2022/03/19 02:25:48;;;;;;;15.25;3.80;;;2.50;99.90;;;;;;4990792;28;20046;-85
2022/03/19 02:28:14;;;;;;;21.70;4.22;;;2.50;99.90;;;;;;4974296;28;20049;-86
2022/03/19 02:30:42;;;;;;;20.65;4.40;;;2.50;99.90;;;;;;4977897;28;20054;-87
2022/03/19 02:33:08;;;;;;;16.02;3.30;;;2.40;99.90;;;;;;4988726;28;20202;-87
2022/03/19 02:35:34;;;;;;;18.58;4.53;;;2.50;99.90;;;;;;4955173;28;20057;-87
2022/03/19 02:37:59;;;;;;;18.67;3.97;;;2.40;99.90;;;;;;4955117;28;20050;-87
2022/03/19 02:40:25;;;;;;;18.83;4.07;;;2.40;99.90;;;;;;4961562;28;20046;-87
2022/03/19 02:42:53;;;;;;;22.42;4.25;;;2.40;99.90;;;;;;4989486;28;20053;-89
2022/03/19 02:45:21;;;;;;;19.13;4.45;;;2.40;99.90;;;;;;4973841;28;20129;-86
2022/03/19 02:47:59;;;;;;;14.57;3.70;;;2.40;99.90;;;;;;4986630;28;20046;-89
2022/03/19 02:50:35;;;;;;;24.38;4.20;;;2.40;99.90;;;;;;4989496;28;20427;-87
2022/03/19 02:53:07;;;;;;;17.10;4.22;;;2.20;99.90;;;;;;4970519;28;20112;-87
2022/03/19 02:55:40;;;;;;;20.15;4.35;;;2.30;99.90;;;;;;4972568;28;20069;-88
2022/03/19 02:58:08;;;;;;;23.45;4.50;;;2.20;99.90;;;;;;4973108;28;20116;-88
2022/03/19 03:00:36;;;;;;;19.67;4.22;;;2.20;99.90;;;;;;4992142;28;20116;-87
2022/03/19 03:03:04;;;;;;;17.75;4.30;;;2.10;99.90;;;;;;4971178;28;20415;-87
2022/03/19 03:05:30;;;;;;;16.02;4.00;;;2.00;99.90;;;;;;4987606;28;20042;-86
2022/03/19 03:07:57;;;;;;;17.48;3.95;;;2.00;99.90;;;;;;4972271;28;20054;-88
2022/03/19 03:10:25;;;;;;;19.98;5.57;;;2.00;99.90;;;;;;4989063;28;20073;-88
2022/03/19 03:12:51;;;;;;;20.73;5.60;;;1.90;99.90;;;;;;4967517;28;20047;-89
2022/03/19 03:15:22;;;;;;;16.23;4.25;;;1.90;99.90;;;;;;4952671;28;20104;-87
2022/03/19 03:17:48;;;;;;;15.77;4.45;;;1.80;99.90;;;;;;4964609;28;20135;-87
2022/03/19 03:20:14;;;;;;;22.27;5.03;;;1.70;99.90;;;;;;4968201;28;20058;-86
2022/03/19 03:22:42;;;;;;;14.95;4.07;;;1.70;99.90;;;;;;4974739;28;20133;-86
2022/03/19 03:25:08;;;;;;;21.00;4.78;;;1.60;99.90;;;;;;4961055;28;20085;-87
2022/03/19 03:27:34;;;;;;;22.40;4.82;;;1.50;99.90;;;;;;4972620;28;20073;-87
2022/03/19 03:29:59;;;;;;;14.40;4.63;;;1.50;99.90;;;;;;4973668;28;20085;-86
2022/03/19 03:32:25;;;;;;;18.30;4.55;;;1.50;99.90;;;;;;4957609;28;20487;-86
2022/03/19 03:34:51;;;;;;;26.50;5.47;;;1.40;99.90;;;;;;4973637;28;20056;-90
2022/03/19 03:37:18;;;;;;;20.15;6.47;;;1.40;99.90;;;;;;4972399;28;20053;-87
2022/03/19 03:39:44;;;;;;;12.23;4.80;;;1.30;99.90;;;;;;4998447;28;20053;-87
2022/03/19 03:42:10;;;;;;;16.63;4.80;;;1.40;99.90;;;;;;4959192;28;20051;-88
2022/03/19 03:44:39;;;;;;;23.38;5.00;;;1.30;99.90;;;;;;4970107;28;20744;-88
2022/03/19 03:47:05;;;;;;;20.75;5.22;;;1.30;99.90;;;;;;4983326;28;20108;-87
2022/03/19 03:49:31;;;;;;;17.38;5.13;;;1.20;99.90;;;;;;4963996;28;20050;-87
2022/03/19 03:51:57;;;;;;;18.50;5.28;;;1.20;99.90;;;;;;4989071;28;20042;-87
2022/03/19 03:54:23;;;;;;;17.38;6.38;;;1.20;99.90;;;;;;4938230;28;20046;-88
2022/03/19 03:56:50;;;;;;;25.05;5.38;;;1.20;99.90;;;;;;4974646;28;20050;-86
2022/03/19 03:59:16;;;;;;;19.55;4.88;;;1.20;99.90;;;;;;4974548;28;20242;-90
2022/03/19 04:01:41;;;;;;;22.05;5.38;;;1.20;99.90;;;;;;4959068;28;20050;-87
2022/03/19 04:04:08;;;;;;;22.27;5.22;;;1.20;99.90;;;;;;4972469;28;20500;-89
2022/03/19 04:06:36;;;;;;;19.80;6.10;;;1.20;99.90;;;;;;4984312;28;20050;-88
2022/03/19 04:09:04;;;;;;;17.98;5.50;;;1.20;99.90;;;;;;4983899;28;20050;-87
2022/03/19 04:11:30;;;;;;;22.75;5.78;;;1.20;99.90;;;;;;4985047;28;20081;-87
2022/03/19 04:13:56;;;;;;;17.65;5.55;;;1.30;99.90;;;;;;4971663;28;20054;-89
2022/03/19 04:16:22;;;;;;;18.95;5.15;;;1.30;99.90;;;;;;4980973;28;20053;-88
2022/03/19 04:18:48;;;;;;;24.67;6.15;;;1.30;99.90;;;;;;4975324;28;20034;-87
2022/03/19 04:21:13;;;;;;;27.33;6.28;;;1.40;99.90;;;;;;4973731;28;20492;-86
2022/03/19 04:23:39;;;;;;;20.30;6.38;;;1.40;99.90;;;;;;4976275;28;20526;-86
2022/03/19 04:26:05;;;;;;;20.42;6.38;;;1.40;99.90;;;;;;4955277;28;20050;-86
2022/03/19 04:28:31;;;;;;;15.95;5.53;;;1.50;99.90;;;;;;4984565;28;20042;-87
2022/03/19 04:30:56;;;;;;;19.40;5.68;;;1.40;99.90;;;;;;4990880;28;20077;-90
2022/03/19 04:33:22;;;;;;;23.30;6.55;;;1.40;99.90;;;;;;4988127;28;20046;-87
2022/03/19 04:38:32;;;;;;;21.77;6.10;;;1.40;99.90;;;;;;4968180;28;20093;-87
2022/03/19 04:40:59;;;;;;;14.93;5.68;;;1.30;99.90;;;;;;4988344;28;20328;-90
2022/03/19 04:43:25;;;;;;;17.63;5.63;;;1.30;99.90;;;;;;4964179;28;20046;-86
2022/03/19 04:45:51;;;;;;;19.33;6.28;;;1.10;99.90;;;;;;4972234;28;20054;-85
2022/03/19 04:48:17;;;;;;;21.20;7.80;;;1.10;99.90;;;;;;4985258;28;20089;-89
2022/03/19 04:50:43;;;;;;;18.48;6.13;;;1.10;99.90;;;;;;4970260;28;20050;-87
2022/03/19 04:53:10;;;;;;;15.63;6.22;;;0.90;99.90;;;;;;4983138;28;20050;-86
2022/03/19 04:55:38;;;;;;;19.95;6.53;;;0.80;99.90;;;;;;4975510;28;20046;-89
2022/03/19 04:58:04;;;;;;;25.08;6.75;;;0.80;99.90;;;;;;4988846;28;20054;-87
2022/03/19 05:00:31;;;;;;;18.42;6.35;;;0.70;99.90;;;;;;4966432;28;20137;-88
2022/03/19 05:02:57;;;;;;;19.10;6.80;;;0.70;99.90;;;;;;4975443;28;20050;-88
2022/03/19 05:05:25;;;;;;;22.65;7.40;;;0.70;99.90;;;;;;4948927;28;20057;-87
2022/03/19 05:07:53;;;;;;;21.50;7.28;;;0.60;99.90;;;;;;4989848;28;20437;-87
2022/03/19 05:13:03;;;;;;;21.15;7.55;;;0.50;99.90;;;;;;4977860;28;20057;-87
2022/03/19 05:15:32;;;;;;;18.33;6.97;;;0.60;99.90;;;;;;5003217;28;20042;-88
2022/03/19 05:17:57;;;;;;;21.13;7.00;;;0.60;99.90;;;;;;4979060;28;20125;-89
2022/03/19 05:20:25;;;;;;;23.88;7.88;;;0.60;99.90;;;;;;4993569;28;20134;-88
2022/03/19 05:22:51;;;;;;;28.00;8.38;;;0.60;99.90;;;;;;4993521;28;20061;-87
2022/03/19 05:25:17;;;;;;;22.60;7.65;;;0.70;99.90;;;;;;4990750;28;20047;-88
2022/03/19 05:27:43;;;;;;;29.13;8.85;;;0.60;99.90;;;;;;4980409;28;20047;-86
2022/03/19 05:30:09;;;;;;;26.17;7.93;;;0.70;99.90;;;;;;4973528;28;20043;-87
2022/03/19 05:32:36;;;;;;;21.98;7.53;;;0.70;99.90;;;;;;4966352;28;20053;-87
2022/03/19 05:35:03;;;;;;;16.80;6.88;;;0.70;99.90;;;;;;4967134;28;20097;-90
2022/03/19 05:37:29;;;;;;;26.05;8.27;;;0.70;99.90;;;;;;4990923;28;20053;-87
2022/03/19 05:39:55;;;;;;;28.65;8.27;;;0.70;99.90;;;;;;5007432;28;20050;-86
2022/03/19 05:42:22;;;;;;;25.55;8.27;;;0.80;99.90;;;;;;4966207;28;20100;-87
2022/03/19 05:44:48;;;;;;;22.58;7.55;;;0.80;99.90;;;;;;4991372;28;20082;-88
2022/03/19 05:47:14;;;;;;;32.97;8.52;;;1.00;99.90;;;;;;4967810;28;20512;-87
2022/03/19 05:49:44;;;;;;;24.85;8.10;;;0.90;99.90;;;;;;4975246;28;20081;-88
2022/03/19 05:52:10;;;;;;;23.52;8.40;;;1.00;99.90;;;;;;4989795;28;20072;-87
2022/03/19 05:54:36;;;;;;;21.70;8.90;;;1.10;99.90;;;;;;4974851;28;20536;-89
2022/03/19 05:57:02;;;;;;;24.50;9.70;;;1.10;99.90;;;;;;4963502;28;20046;-89
2022/03/19 05:59:30;;;;;;;23.40;9.10;;;1.10;99.90;;;;;;5005365;28;20082;-88
2022/03/19 06:01:56;;;;;;;25.00;8.15;;;1.10;99.90;;;;;;4963829;28;20757;-88
2022/03/19 06:04:22;;;;;;;25.50;8.20;;;1.20;99.90;;;;;;4988078;28;20053;-86
2022/03/19 06:06:48;;;;;;;20.48;7.70;;;1.20;99.90;;;;;;4975371;28;20077;-87
2022/03/19 06:09:13;;;;;;;25.10;8.20;;;1.30;99.90;;;;;;4973362;28;20089;-88
2022/03/19 06:11:44;;;;;;;27.90;8.77;;;1.40;99.90;;;;;;4954924;28;20129;-87
2022/03/19 06:14:10;;;;;;;30.38;9.35;;;1.50;99.90;;;;;;4974906;28;20046;-86
2022/03/19 06:16:36;;;;;;;24.10;7.68;;;1.40;99.90;;;;;;4967697;28;20054;-87
2022/03/19 06:19:01;;;;;;;20.75;8.02;;;1.50;99.90;;;;;;4986756;28;20514;-88
2022/03/19 06:21:27;;;;;;;20.83;7.88;;;1.60;99.90;;;;;;4970432;28;20042;-86
2022/03/19 06:23:53;;;;;;;19.77;7.72;;;1.70;99.90;;;;;;4982673;28;20125;-85
2022/03/19 06:26:23;;;;;;;15.98;8.02;;;1.80;99.90;;;;;;4971796;28;20084;-86
2022/03/19 06:28:54;;;;;;;25.63;8.15;;;2.00;99.90;;;;;;4966069;28;20073;-88
2022/03/19 06:31:20;;;;;;;20.58;7.18;;;2.10;99.90;;;;;;4978029;28;20054;-86
2022/03/19 06:33:46;;;;;;;19.13;7.35;;;2.30;99.90;;;;;;4990961;28;20510;-85
2022/03/19 06:38:57;;;;;;;26.45;8.35;;;2.40;99.90;;;;;;4986420;28;20456;-85
2022/03/19 06:41:23;;;;;;;18.63;7.35;;;2.60;99.90;;;;;;4985375;28;20038;-86
2022/03/19 06:43:50;;;;;;;23.73;7.70;;;2.70;99.90;;;;;;4961101;28;20105;-86
2022/03/19 06:46:15;;;;;;;26.75;8.40;;;2.70;99.90;;;;;;4989958;28;20069;-84
2022/03/19 06:48:42;;;;;;;22.48;7.40;;;2.70;99.90;;;;;;4968443;28;20488;-87
2022/03/19 06:51:07;;;;;;;19.42;6.82;;;2.80;99.90;;;;;;4972068;28;20487;-88
2022/03/19 06:53:33;;;;;;;21.60;7.70;;;2.80;99.90;;;;;;4967525;28;20104;-86
2022/03/19 06:55:59;;;;;;;18.45;7.05;;;2.90;99.90;;;;;;4987489;28;20269;-88
2022/03/19 06:58:25;;;;;;;15.55;7.00;;;2.90;99.90;;;;;;4975806;28;20464;-86
2022/03/19 07:00:52;;;;;;;23.55;7.95;;;3.00;99.90;;;;;;4975575;28;20045;-86
2022/03/19 07:03:18;;;;;;;23.20;7.53;;;3.10;99.90;;;;;;4975210;28;20085;-86
2022/03/19 07:05:44;;;;;;;19.92;7.72;;;3.10;99.90;;;;;;5007452;28;20084;-85
2022/03/19 07:08:09;;;;;;;20.92;7.18;;;3.20;99.90;;;;;;4976088;28;20070;-90
2022/03/19 07:10:35;;;;;;;21.83;7.75;;;3.20;99.90;;;;;;4977888;28;20054;-85
2022/03/19 07:13:04;;;;;;;22.10;8.20;;;3.30;99.90;;;;;;4990589;28;20038;-87
2022/03/19 07:15:30;;;;;;;24.25;8.57;;;3.40;99.90;;;;;;4970670;28;20050;-84
2022/03/19 07:17:57;;;;;;;16.90;7.60;;;3.50;99.90;;;;;;4990397;28;20042;-81
2022/03/19 07:20:22;;;;;;;25.58;7.97;;;3.50;99.90;;;;;;4971859;28;20735;-83
2022/03/19 07:22:59;;;;;;;18.88;7.63;;;3.60;99.90;;;;;;4960462;28;20047;-86
2022/03/19 07:25:34;;;;;;;;;;;3.70;99.90;;;;;;4961803;28;20050;-84
2022/03/19 07:28:06;;;;;;;19.50;7.25;;;3.70;99.90;;;;;;4986310;28;19925;-84
2022/03/19 07:30:33;;;;;;;17.42;7.10;;;3.80;99.90;;;;;;4990039;28;20474;-86
2022/03/19 07:33:00;;;;;;;25.75;8.02;;;3.90;99.90;;;;;;4974446;28;20076;-87
2022/03/19 07:35:26;;;;;;;23.48;8.48;;;4.00;99.90;;;;;;4971879;28;20093;-80
2022/03/19 07:37:53;;;;;;;19.92;8.65;;;4.00;99.90;;;;;;4974837;28;20400;-81
2022/03/19 07:43:09;;;;;;;21.63;7.82;;;4.10;99.90;;;;;;4990381;28;20412;-80
2022/03/19 07:45:35;;;;;;;22.75;9.68;;;4.30;99.90;;;;;;4989202;28;20491;-80
2022/03/19 07:48:02;;;;;;;21.75;8.35;;;4.30;99.90;;;;;;5002926;28;20034;-79
2022/03/19 07:50:28;;;;;;;20.58;7.90;;;4.40;99.90;;;;;;4974287;28;20400;-81
2022/03/19 07:52:54;;;;;;;18.33;7.95;;;4.50;99.90;;;;;;4990056;28;20069;-80
2022/03/19 07:55:20;;;;;;;26.23;8.68;;;4.50;99.90;;;;;;4981419;28;20515;-79
2022/03/19 07:57:46;;;;;;;21.75;8.10;;;4.70;99.90;;;;;;4990901;28;20053;-81
2022/03/19 08:00:12;;;;;;;24.25;8.15;;;4.80;99.90;;;;;;4971738;28;20050;-86
2022/03/19 08:02:42;;;;;;;21.13;7.50;;;4.80;99.90;;;;;;4973938;28;20046;-85
2022/03/19 08:05:09;;;;;;;22.33;8.07;;;4.90;99.90;;;;;;4955484;28;20084;-85
2022/03/19 08:07:37;;;;;;;23.77;7.15;;;5.00;99.90;;;;;;4993639;28;20053;-82
2022/03/19 08:10:11;;;;;;;18.35;7.05;;;5.10;99.90;;;;;;4965902;28;20089;-82
2022/03/19 08:12:43;;;;;;;19.90;6.93;;;5.20;99.90;;;;;;4992423;28;20052;-83
2022/03/19 08:15:17;;;;;;;17.92;6.63;;;5.40;99.90;;;;;;4975878;28;20077;-83
2022/03/19 08:17:49;;;;;;;17.52;6.85;;;5.40;99.90;;;;;;4977252;28;20054;-84
2022/03/19 08:20:17;;;;;;;20.63;7.65;;;5.50;99.90;;;;;;4976488;28;20057;-82
2022/03/19 08:22:44;;;;;;;19.70;6.22;;;5.60;99.90;;;;;;4979654;28;20050;-84
2022/03/19 08:25:28;;;;;;;19.83;6.03;;;5.70;99.90;;;;;;4984836;28;20050;-85
2022/03/19 08:28:08;;;;;;;18.48;5.78;;;5.70;99.90;;;;;;4978058;28;20074;-84
2022/03/19 08:30:40;;;;;;;23.35;5.78;;;5.90;99.90;;;;;;4966473;28;20057;-84
2022/03/19 08:33:07;;;;;;;19.88;6.05;;;6.00;99.90;;;;;;4963239;28;20054;-85
2022/03/19 08:35:33;;;;;;;17.50;5.55;;;6.00;99.90;;;;;;4947909;28;20093;-84
2022/03/19 08:40:49;;;;;;;14.02;5.13;;;6.20;99.90;;;;;;4960274;28;20153;-89
2022/03/19 08:43:15;;;;;;;19.35;5.32;;;6.30;99.90;;;;;;4963839;28;20118;-89
2022/03/19 08:45:41;;;;;;;18.20;5.07;;;6.40;99.90;;;;;;4967513;28;20058;-85
2022/03/19 08:48:13;;;;;;;15.32;4.38;;;6.50;99.90;;;;;;4944351;28;20088;-84
2022/03/19 08:50:39;;;;;;;13.88;4.28;;;6.60;99.90;;;;;;4959790;28;20054;-86
2022/03/19 08:53:05;;;;;;;13.77;3.67;;;6.60;99.90;;;;;;4943384;28;20050;-87
2022/03/19 08:55:31;;;;;;;19.38;4.60;;;6.70;99.90;;;;;;4946064;28;20057;-84
2022/03/19 08:57:57;;;;;;;11.52;3.58;;;6.80;99.90;;;;;;4944407;28;20043;-86
2022/03/19 09:00:22;;;;;;;22.08;5.72;;;6.90;99.90;;;;;;4947491;28;20447;-85
2022/03/19 09:02:49;;;;;;;15.90;3.58;;;7.00;99.90;;;;;;4950017;28;20469;-87
2022/03/19 09:05:15;;;;;;;15.07;3.70;;;7.10;99.90;;;;;;4974900;28;20085;-90
2022/03/19 09:07:43;;;;;;;14.15;3.60;;;7.20;99.90;;;;;;4961504;28;20077;-87
2022/03/19 09:10:10;;;;;;;14.35;3.72;;;7.20;99.90;;;;;;4992894;28;20642;-89
2022/03/19 09:12:37;;;;;;;12.75;3.15;;;7.30;99.90;;;;;;4967627;28;20534;-86
2022/03/19 09:15:03;;;;;;;16.17;3.30;;;7.40;99.40;;;;;;4946275;28;20043;-86
2022/03/19 09:17:29;;;;;;;13.75;3.30;;;7.50;99.00;;;;;;4973379;28;20254;-88
2022/03/19 09:19:55;;;;;;;11.55;2.90;;;7.50;98.00;;;;;;4941297;28;20047;-84
2022/03/19 09:22:21;;;;;;;13.95;3.28;;;7.70;98.00;;;;;;4941201;28;20076;-83
2022/03/19 09:24:48;;;;;;;14.95;3.38;;;7.70;96.20;;;;;;4941135;28;20054;-84
2022/03/19 09:27:14;;;;;;;12.88;2.83;;;7.80;96.20;;;;;;4941536;28;20053;-84
2022/03/19 09:29:42;;;;;;;13.43;3.53;;;7.90;96.00;;;;;;4973255;28;20528;-84
2022/03/19 09:32:09;;;;;;;14.63;3.80;;;8.00;95.90;;;;;;4941995;28;20054;-83
2022/03/19 09:34:36;;;;;;;12.68;3.15;;;8.10;94.90;;;;;;4973528;28;20058;-83
2022/03/19 09:37:02;;;;;;;11.20;2.90;;;8.20;94.50;;;;;;4942275;28;20054;-83
2022/03/19 09:39:28;;;;;;;12.63;3.15;;;8.30;93.40;;;;;;4941603;28;20086;-84
2022/03/19 09:41:54;;;;;;;14.25;3.20;;;8.40;92.70;;;;;;4941948;28;20082;-84
2022/03/19 09:44:29;;;;;;;13.45;3.03;;;8.60;92.20;;;;;;4957679;28;20050;-86
2022/03/19 09:46:54;;;;;;;9.68;2.70;;;8.70;91.70;;;;;;4958052;28;20133;-83
2022/03/19 09:49:21;;;;;;;10.10;2.90;;;9.00;91.40;;;;;;4957261;28;20461;-85
2022/03/19 09:51:53;;;;;;;9.52;2.20;;;9.20;91.00;;;;;;4941770;28;20538;-84
2022/03/19 09:54:20;;;;;;;13.57;3.53;;;9.40;87.00;;;;;;4957703;28;20090;-88
2022/03/19 09:56:46;;;;;;;11.38;2.50;;;9.60;86.20;;;;;;4957242;28;20074;-84
2022/03/19 09:59:12;;;;;;;11.02;2.70;;;9.90;84.10;;;;;;4939787;28;20575;-85
2022/03/19 10:01:38;;;;;;;14.68;3.40;;;10.10;83.60;;;;;;4955594;28;20077;-87
2022/03/19 10:04:07;;;;;;;13.10;3.17;;;10.20;82.30;;;;;;4956115;28;20057;-84
2022/03/19 10:09:20;;;;;;;10.68;3.38;;;10.60;79.30;;;;;;4967472;28;20094;-89
2022/03/19 10:11:53;;;;;;;14.15;4.03;;;10.60;77.80;;;;;;4959222;28;20050;-85
2022/03/19 10:14:23;;;;;;;8.48;2.72;;;10.80;76.10;;;;;;4975031;28;20046;-89
2022/03/19 10:16:51;;;;;;;9.60;2.58;;;11.00;77.00;;;;;;4958711;28;20120;-86
2022/03/19 10:19:20;;;;;;;8.57;2.25;;;11.20;75.80;;;;;;4959449;28;20053;-86
2022/03/19 10:21:47;;;;;;;8.13;1.70;;;11.40;72.20;;;;;;4972517;28;20081;-86
2022/03/19 10:24:25;;;;;;;7.65;2.55;;;11.50;70.00;;;;;;4971573;28;20058;-86
2022/03/19 10:26:53;;;;;;;12.00;2.95;;;11.70;68.40;;;;;;4974881;28;20046;-87
2022/03/19 10:29:29;;;;;;;10.50;2.63;;;11.90;68.80;;;;;;4958202;28;20443;-90
2022/03/19 10:32:00;;;;;;;10.02;2.60;;;12.30;68.00;;;;;;4959139;28;20050;-86
2022/03/19 10:34:28;;;;;;;12.82;2.75;;;12.90;65.20;;;;;;4958180;28;20034;-88
2022/03/19 10:36:57;;;;;;;7.68;2.00;;;13.50;65.00;;;;;;4958423;28;20046;-84
2022/03/19 10:39:26;;;;;;;11.15;2.70;;;14.20;60.90;;;;;;4957885;28;20058;-86
2022/03/19 10:41:57;;;;;;;8.18;2.13;;;14.80;56.00;;;;;;4958144;28;20093;-85
2022/03/19 10:44:27;;;;;;;10.23;2.15;;;15.30;53.70;;;;;;4973648;28;20480;-86
2022/03/19 10:46:56;;;;;;;12.20;2.90;;;15.90;51.60;;;;;;4958247;28;20496;-85
2022/03/19 10:49:28;;;;;;;9.05;2.50;;;16.50;50.20;;;;;;4957725;28;20053;-92
2022/03/19 10:52:02;;;;;;;9.85;2.90;;;17.20;49.70;;;;;;4958042;28;20042;-86
2022/03/19 10:54:31;;;;;;;11.15;2.40;;;17.90;48.10;;;;;;4957703;28;20484;-86
2022/03/19 10:57:00;;;;;;;12.00;2.83;;;18.50;46.80;;;;;;4958092;28;20069;-87
2022/03/19 10:59:30;;;;;;;6.45;2.40;;;18.50;43.90;;;;;;4957383;28;20049;-85
2022/03/19 11:01:58;;;;;;;8.77;2.40;;;18.80;43.70;;;;;;4973325;28;20065;-85
2022/03/19 11:04:28;;;;;;;7.85;2.50;;;19.20;43.00;;;;;;4957314;28;20050;-90
2022/03/19 11:06:57;;;;;;;7.10;1.95;;;19.60;41.40;;;;;;4974033;28;20476;-85
2022/03/19 11:09:29;;;;;;;11.07;2.20;;;19.60;40.40;;;;;;4973007;28;20504;-87
2022/03/19 11:12:04;;;;;;;8.25;2.10;;;19.70;39.30;;;;;;4973986;28;20140;-83
2022/03/19 11:14:33;;;;;;;6.27;2.07;;;19.90;39.20;;;;;;4974056;28;20042;-85
2022/03/19 11:17:23;;;;;;;8.73;2.10;;;19.80;38.50;;;;;;4942660;28;20666;-84
2022/03/19 11:19:53;;;;;;;7.75;2.63;;;19.80;37.70;;;;;;4957968;28;20104;-85
2022/03/19 11:22:21;;;;;;;8.35;1.90;;;20.10;38.40;;;;;;4973694;28;20492;-85
2022/03/19 11:25:04;;;;;;;5.93;1.92;;;20.60;38.10;;;;;;4942109;28;20140;-84
2022/03/19 11:27:37;;;;;;;6.90;2.50;;;20.80;34.40;;;;;;4958088;28;20047;-84
2022/03/19 11:30:05;;;;;;;6.88;1.92;;;20.80;36.90;;;;;;4959334;28;20132;-85
2022/03/19 11:32:31;;;;;;;5.25;2.10;;;20.90;36.10;;;;;;4958123;28;20046;-87
2022/03/19 11:34:59;;;;;;;6.30;2.10;;;20.60;36.00;;;;;;4974166;28;20066;-84
2022/03/19 11:37:59;;;;;;;5.82;1.85;;;20.80;35.70;;;;;;4957913;28;20046;-88
2022/03/19 11:40:32;;;;;;;7.03;2.47;;;21.20;32.60;;;;;;4957781;28;20050;-88
2022/03/19 11:43:01;;;;;;;9.57;2.20;;;21.30;34.20;;;;;;4990798;28;20047;-85
2022/03/19 11:45:27;;;;;;;7.00;2.10;;;21.60;35.40;;;;;;4991221;28;20054;-87
2022/03/19 11:48:00;;;;;;;4.13;2.10;;;21.60;33.70;;;;;;4958788;28;20038;-84
2022/03/19 11:50:31;;;;;;;4.85;1.83;;;21.70;33.40;;;;;;4958647;28;20054;-89
2022/03/19 11:52:56;;;;;;;6.68;2.50;;;21.50;31.30;;;;;;4974529;28;20545;-84
2022/03/19 11:55:29;;;;;;;6.40;2.03;;;21.40;33.30;;;;;;4958864;28;20046;-84
2022/03/19 11:58:00;;;;;;;6.63;1.90;;;21.80;33.00;;;;;;4943221;28;20093;-84
2022/03/19 12:00:34;;;;;;;5.72;1.77;;;21.80;32.10;;;;;;4944702;28;20057;-85
2022/03/19 12:03:08;;;;;;;7.35;1.90;;;22.10;32.30;;;;;;4958970;28;20756;-84
2022/03/19 12:05:38;;;;;;;3.83;1.80;;;22.20;31.20;;;;;;4958139;28;20554;-84
2022/03/19 12:08:10;;;;;;;2.85;1.40;;;22.20;30.90;;;;;;4958476;28;20097;-84
2022/03/19 12:10:54;;;;;;;5.00;1.80;;;22.20;30.40;;;;;;4957827;28;20059;-84
2022/03/19 12:13:29;;;;;;;4.68;1.25;;;21.90;28.10;;;;;;4939885;28;20054;-84
2022/03/19 12:15:59;;;;;;;3.90;1.48;;;21.60;29.30;;;;;;4939684;28;20531;-84
2022/03/19 12:18:28;;;;;;;4.15;1.50;;;21.40;30.00;;;;;;4939727;28;20117;-84
2022/03/19 12:21:10;;;;;;;5.20;1.38;;;21.50;30.10;;;;;;4939617;28;20444;-85
2022/03/19 12:23:40;;;;;;;4.60;1.70;;;21.90;29.40;;;;;;4953711;28;20488;-85
2022/03/19 12:26:08;;;;;;;4.38;1.85;;;22.10;29.60;;;;;;4931555;28;20146;-86
2022/03/19 12:28:35;;;;;;;4.35;1.42;;;22.70;29.90;;;;;;4939186;28;20397;-84
2022/03/19 12:31:11;;;;;;;6.10;1.80;;;23.00;29.40;;;;;;4955540;28;20050;-84
2022/03/19 12:33:38;;;;;;;3.80;1.50;;;23.50;27.50;;;;;;4955004;28;20488;-85
2022/03/19 12:36:18;;;;;;;3.83;1.42;;;23.20;28.30;;;;;;4938942;28;20520;-84
2022/03/19 12:38:46;;;;;;;3.92;1.20;;;22.50;26.80;;;;;;4954433;28;20134;-84
2022/03/19 12:41:29;;;;;;;3.58;1.42;;;22.00;28.50;;;;;;4941816;28;20059;-88
2022/03/19 12:44:06;;;;;;;4.90;1.35;;;22.30;28.40;;;;;;4958304;28;20069;-84
2022/03/19 12:46:35;;;;;;;3.97;1.17;;;22.30;27.50;;;;;;4957798;28;20381;-84
2022/03/19 12:49:02;;;;;;;3.75;1.27;;;22.30;28.50;;;;;;4942654;28;20038;-85
2022/03/19 12:51:31;;;;;;;2.95;1.10;;;22.30;28.20;;;;;;4942857;28;20057;-85
2022/03/19 12:53:57;;;;;;;5.20;1.10;;;22.50;27.70;;;;;;4958649;28;20054;-84
2022/03/19 12:56:28;;;;;;;3.63;1.33;;;22.20;27.50;;;;;;4974885;28;20043;-84
2022/03/19 12:58:59;;;;;;;3.17;1.48;;;22.30;27.80;;;;;;4942350;28;20051;-84
2022/03/19 13:01:27;;;;;;;4.15;1.42;;;22.40;27.10;;;;;;4942760;28;20105;-85
2022/03/19 13:03:55;;;;;;;6.10;1.50;;;22.30;27.60;;;;;;4957691;28;20066;-86
2022/03/19 13:06:41;;;;;;;3.88;1.15;;;22.00;27.60;;;;;;4957681;28;20139;-86
2022/03/19 13:09:11;;;;;;;3.10;1.20;;;22.10;27.50;;;;;;4961335;28;20121;-84
2022/03/19 13:11:50;;;;;;;4.82;1.23;;;22.40;27.30;;;;;;4989245;28;20050;-85